Time;durP1;ratioP1;P1;durP2;ratioP2;P2;SDS_P1;SDS_P2;PMS_P1;PMS_P2;Temp;Humidity;BMP_temperature;BMP_pressure;BME280_temperature;BME280_humidity;BME280_pressure;Samples;Min_cycle;Max_cycle;Signal;HPM_P1;HPM_P2
2021/08/19 00:01:54;;;;;;;36.90;5.93;;;;;;;;;;5082663;28;20387;-39
2021/08/19 00:04:21;;;;;;;39.63;5.45;;;;;;;;;;5084350;28;20020;-42
2021/08/19 00:06:48;;;;;;;46.20;7.40;;;;;;;;;;5087764;28;20024;-41
2021/08/19 00:09:15;;;;;;;42.60;4.90;;;;;;;;;;5082281;28;20012;-40
2021/08/19 00:11:43;;;;;;;36.00;6.05;;;;;;;;;;5083541;28;20030;-40
2021/08/19 00:14:10;;;;;;;27.73;4.95;;;;;;;;;;5083714;28;20051;-38
2021/08/19 00:16:37;;;;;;;41.20;5.45;;;;;;;;;;5085872;28;20028;-44
2021/08/19 00:19:04;;;;;;;43.58;4.88;;;;;;;;;;5083095;28;20024;-43
2021/08/19 00:21:31;;;;;;;34.67;4.85;;;;;;;;;;5083566;28;20035;-46
2021/08/19 00:23:58;;;;;;;34.78;5.43;;;;;;;;;;5080666;28;20468;-42
2021/08/19 00:26:26;;;;;;;28.60;5.43;;;;;;;;;;5079305;28;20028;-49
2021/08/19 00:28:53;;;;;;;40.90;4.90;;;;;;;;;;5083663;28;20111;-44
2021/08/19 00:31:22;;;;;;;36.38;5.72;;;;;;;;;;5077848;28;20024;-39
2021/08/19 00:33:50;;;;;;;42.17;5.60;;;;;;;;;;5082187;28;20100;-40
2021/08/19 00:36:17;;;;;;;39.97;4.70;;;;;;;;;;5081202;28;20041;-39
2021/08/19 00:38:45;;;;;;;31.83;5.03;;;;;;;;;;5071903;28;20043;-39
2021/08/19 00:41:12;;;;;;;32.65;4.88;;;;;;;;;;5071942;28;20024;-39
2021/08/19 00:43:39;;;;;;;29.55;4.57;;;;;;;;;;5085483;28;20029;-40
2021/08/19 00:46:44;;;;;;;32.72;5.32;;;;;;;;;;5095297;28;20043;-40
2021/08/19 00:49:15;;;;;;;43.15;5.40;;;;;;;;;;5042806;28;20037;-46
2021/08/19 00:51:50;;;;;;;39.75;5.00;;;;;;;;;;5037955;28;20131;-45
2021/08/19 00:54:17;;;;;;;29.48;4.53;;;;;;;;;;5066021;28;20028;-44
2021/08/19 00:56:44;;;;;;;33.47;4.78;;;;;;;;;;5086318;28;20040;-46
2021/08/19 00:59:11;;;;;;;27.50;4.57;;;;;;;;;;5083762;28;20407;-40
2021/08/19 01:01:39;;;;;;;31.77;5.03;;;;;;;;;;5082135;28;20009;-40
2021/08/19 01:04:06;;;;;;;30.65;5.00;;;;;;;;;;5090913;28;20032;-40
2021/08/19 01:06:34;;;;;;;28.90;4.78;;;;;;;;;;5088263;28;20129;-43
2021/08/19 01:09:01;;;;;;;35.10;5.63;;;;;;;;;;5077811;28;20020;-39
2021/08/19 01:11:29;;;;;;;33.05;5.47;;;;;;;;;;5081907;28;20028;-39
2021/08/19 01:13:56;;;;;;;39.28;6.70;;;;;;;;;;5085093;28;20039;-39
2021/08/19 01:16:23;;;;;;;36.38;6.95;;;;;;;;;;5082268;28;20093;-40
2021/08/19 01:18:50;;;;;;;42.42;8.27;;;;;;;;;;5077809;28;20108;-40
2021/08/19 01:21:18;;;;;;;42.88;8.95;;;;;;;;;;5082498;28;20036;-40
2021/08/19 01:23:45;;;;;;;48.72;8.30;;;;;;;;;;5087697;28;20026;-43
2021/08/19 01:26:16;;;;;;;47.72;9.68;;;;;;;;;;5077424;28;20035;-39
2021/08/19 01:28:44;;;;;;;51.00;9.55;;;;;;;;;;5074354;28;20038;-40
2021/08/19 01:31:15;;;;;;;53.47;10.90;;;;;;;;;;5085733;28;20437;-44
2021/08/19 01:33:43;;;;;;;50.77;10.17;;;;;;;;;;5088412;28;20027;-40
2021/08/19 01:36:11;;;;;;;44.95;9.90;;;;;;;;;;5083484;28;20056;-43
2021/08/19 01:38:38;;;;;;;50.40;9.65;;;;;;;;;;5086722;28;20031;-39
2021/08/19 01:41:05;;;;;;;44.75;10.45;;;;;;;;;;5083023;28;20036;-41
2021/08/19 01:43:32;;;;;;;49.83;10.02;;;;;;;;;;5080450;28;20451;-40
2021/08/19 01:46:03;;;;;;;58.30;9.27;;;;;;;;;;5079948;28;20478;-40
2021/08/19 01:48:30;;;;;;;53.90;10.43;;;;;;;;;;5086700;28;20127;-41
2021/08/19 01:50:58;;;;;;;48.65;9.98;;;;;;;;;;5083440;28;20024;-40
2021/08/19 01:53:25;;;;;;;55.88;11.13;;;;;;;;;;5076627;28;20029;-39
2021/08/19 01:55:52;;;;;;;52.10;10.93;;;;;;;;;;5086449;28;20385;-42
2021/08/19 01:58:22;;;;;;;43.72;10.52;;;;;;;;;;5077818;28;20035;-40
2021/08/19 02:00:49;;;;;;;45.28;10.98;;;;;;;;;;5084212;28;20026;-41
2021/08/19 02:03:16;;;;;;;48.80;10.32;;;;;;;;;;5077440;28;20043;-44
2021/08/19 02:05:48;;;;;;;50.47;10.90;;;;;;;;;;5075754;28;20025;-41
2021/08/19 02:08:15;;;;;;;47.10;9.63;;;;;;;;;;5084916;28;20037;-41
2021/08/19 02:10:43;;;;;;;46.60;10.00;;;;;;;;;;5073867;28;20108;-41
2021/08/19 02:13:10;;;;;;;43.08;10.25;;;;;;;;;;5088125;28;20029;-44
2021/08/19 02:15:37;;;;;;;50.28;10.35;;;;;;;;;;5083409;28;20361;-43
2021/08/19 02:18:04;;;;;;;40.22;9.05;;;;;;;;;;5084972;28;20036;-41
2021/08/19 02:20:31;;;;;;;42.78;9.55;;;;;;;;;;5082418;28;20044;-45
2021/08/19 02:22:59;;;;;;;37.88;8.80;;;;;;;;;;5080397;28;20032;-40
2021/08/19 02:25:26;;;;;;;57.65;9.45;;;;;;;;;;5078853;28;20762;-40
2021/08/19 02:27:53;;;;;;;53.95;9.35;;;;;;;;;;5070768;28;20036;-39
2021/08/19 02:30:21;;;;;;;41.13;9.43;;;;;;;;;;5087801;28;20020;-42
2021/08/19 02:32:58;;;;;;;45.38;8.73;;;;;;;;;;5076209;28;20021;-40
2021/08/19 02:35:25;;;;;;;39.15;9.18;;;;;;;;;;5086213;28;20074;-41
2021/08/19 02:37:53;;;;;;;42.45;8.13;;;;;;;;;;5088310;28;20030;-44
2021/08/19 02:40:21;;;;;;;45.17;9.48;;;;;;;;;;5070406;28;20020;-46
2021/08/19 02:42:48;;;;;;;47.85;9.25;;;;;;;;;;5078485;28;20028;-39
2021/08/19 02:45:15;;;;;;;41.80;8.98;;;;;;;;;;5084303;28;20048;-40
2021/08/19 02:47:42;;;;;;;35.95;8.57;;;;;;;;;;5077249;28;20024;-39
2021/08/19 02:50:09;;;;;;;47.67;9.68;;;;;;;;;;5074051;28;20429;-46
2021/08/19 02:52:36;;;;;;;35.92;8.10;;;;;;;;;;5087994;28;20015;-40
2021/08/19 02:55:04;;;;;;;43.65;8.63;;;;;;;;;;5078991;28;20100;-45
2021/08/19 02:57:31;;;;;;;38.60;8.52;;;;;;;;;;5073885;28;20046;-41
2021/08/19 02:59:58;;;;;;;41.35;8.95;;;;;;;;;;5075151;28;20732;-48
2021/08/19 03:02:25;;;;;;;42.33;7.97;;;;;;;;;;5080120;28;20016;-41
2021/08/19 03:04:53;;;;;;;29.98;8.40;;;;;;;;;;5077952;28;20024;-41
2021/08/19 03:07:20;;;;;;;30.33;8.68;;;;;;;;;;5092984;28;20016;-40
2021/08/19 03:09:47;;;;;;;31.52;7.88;;;;;;;;;;5088760;28;20028;-49
2021/08/19 03:12:14;;;;;;;33.40;8.18;;;;;;;;;;5078435;28;20036;-39
2021/08/19 03:14:41;;;;;;;35.92;7.93;;;;;;;;;;5087040;28;20032;-40
2021/08/19 03:17:08;;;;;;;30.42;7.65;;;;;;;;;;5073389;28;20032;-49
2021/08/19 03:19:35;;;;;;;28.63;7.57;;;;;;;;;;5074356;28;20039;-42
2021/08/19 03:22:03;;;;;;;28.17;7.53;;;;;;;;;;5079088;28;20048;-40
2021/08/19 03:24:31;;;;;;;27.42;6.25;;;;;;;;;;5075785;28;20024;-39
2021/08/19 03:26:59;;;;;;;33.08;7.90;;;;;;;;;;5073311;28;20495;-49
2021/08/19 03:29:26;;;;;;;41.60;7.95;;;;;;;;;;5073057;28;20032;-51
2021/08/19 03:31:53;;;;;;;29.50;7.03;;;;;;;;;;5072509;28;20021;-47
2021/08/19 03:34:20;;;;;;;36.60;7.75;;;;;;;;;;5080404;28;20021;-39
2021/08/19 03:36:47;;;;;;;32.80;6.88;;;;;;;;;;5072743;28;20056;-40
2021/08/19 03:39:14;;;;;;;29.75;8.05;;;;;;;;;;5071595;28;20115;-45
2021/08/19 03:41:41;;;;;;;25.88;6.55;;;;;;;;;;5072590;28;20608;-43
2021/08/19 03:44:15;;;;;;;28.95;6.20;;;;;;;;;;5079766;28;20065;-43
2021/08/19 03:46:43;;;;;;;27.25;6.82;;;;;;;;;;5072786;28;20110;-40
2021/08/19 03:49:10;;;;;;;29.63;6.93;;;;;;;;;;5071446;28;20026;-42
2021/08/19 03:51:37;;;;;;;27.65;6.30;;;;;;;;;;5071307;28;20032;-40
2021/08/19 03:54:04;;;;;;;28.23;6.85;;;;;;;;;;5079651;28;20419;-46
2021/08/19 03:56:32;;;;;;;24.98;5.85;;;;;;;;;;5072490;28;20043;-42
2021/08/19 03:58:59;;;;;;;28.40;5.97;;;;;;;;;;5072491;28;20031;-45
2021/08/19 04:01:26;;;;;;;19.80;6.60;;;;;;;;;;5072247;28;20031;-40
2021/08/19 04:03:53;;;;;;;20.02;6.03;;;;;;;;;;5079378;28;20015;-44
2021/08/19 04:06:20;;;;;;;29.83;5.90;;;;;;;;;;5083101;28;20070;-43
2021/08/19 04:08:47;;;;;;;26.23;5.57;;;;;;;;;;5071013;28;20024;-42
2021/08/19 04:11:14;;;;;;;21.67;5.35;;;;;;;;;;5088261;28;20078;-40
2021/08/19 04:13:41;;;;;;;19.77;5.53;;;;;;;;;;5085424;28;20710;-39
2021/08/19 04:16:08;;;;;;;27.98;6.65;;;;;;;;;;5077161;28;20028;-39
2021/08/19 04:18:36;;;;;;;20.35;6.03;;;;;;;;;;5085567;28;20030;-42
2021/08/19 04:21:03;;;;;;;22.13;5.25;;;;;;;;;;5081596;28;20551;-39
2021/08/19 04:23:30;;;;;;;24.90;6.03;;;;;;;;;;5085438;28;20464;-39
2021/08/19 04:25:57;;;;;;;21.33;5.10;;;;;;;;;;5075530;28;20032;-40
2021/08/19 04:28:24;;;;;;;17.83;5.18;;;;;;;;;;5071977;28;20012;-41
2021/08/19 04:30:52;;;;;;;20.38;5.22;;;;;;;;;;5070515;28;20417;-41
2021/08/19 04:33:19;;;;;;;21.30;5.13;;;;;;;;;;5082151;28;20061;-39
2021/08/19 04:35:46;;;;;;;19.17;5.13;;;;;;;;;;5083736;28;20052;-40
2021/08/19 04:38:13;;;;;;;18.08;4.80;;;;;;;;;;5089706;28;20382;-39
2021/08/19 04:40:40;;;;;;;17.55;4.93;;;;;;;;;;5089458;28;20070;-39
2021/08/19 04:43:07;;;;;;;18.30;4.95;;;;;;;;;;5088458;28;20035;-39
2021/08/19 04:45:34;;;;;;;15.65;4.93;;;;;;;;;;5076908;28;20020;-38
2021/08/19 04:48:01;;;;;;;13.93;4.55;;;;;;;;;;5070989;28;20024;-39
2021/08/19 04:50:28;;;;;;;17.25;5.18;;;;;;;;;;5071647;28;20028;-39
2021/08/19 04:52:55;;;;;;;19.08;4.55;;;;;;;;;;5071626;28;20028;-39
2021/08/19 04:55:22;;;;;;;21.92;5.07;;;;;;;;;;5077172;28;20024;-39
2021/08/19 04:57:49;;;;;;;17.92;4.60;;;;;;;;;;5079269;28;20123;-39
2021/08/19 05:00:16;;;;;;;16.33;4.40;;;;;;;;;;5071245;28;20423;-38
2021/08/19 05:02:43;;;;;;;14.48;4.68;;;;;;;;;;5071154;28;20031;-39
2021/08/19 05:05:10;;;;;;;13.25;4.00;;;;;;;;;;5076866;28;20027;-38
2021/08/19 05:07:37;;;;;;;16.35;4.00;;;;;;;;;;5082383;28;20418;-39
2021/08/19 05:10:05;;;;;;;18.17;4.78;;;;;;;;;;5071222;28;20166;-39
2021/08/19 05:12:32;;;;;;;16.55;4.43;;;;;;;;;;5083033;28;20028;-38
2021/08/19 05:14:59;;;;;;;13.02;3.72;;;;;;;;;;5083554;28;20475;-38
2021/08/19 05:17:26;;;;;;;13.38;4.20;;;;;;;;;;5087499;28;20035;-39
2021/08/19 05:19:52;;;;;;;12.07;4.03;;;;;;;;;;5082408;28;20016;-38
2021/08/19 05:22:20;;;;;;;11.68;3.10;;;;;;;;;;5082278;28;20099;-41
2021/08/19 05:24:46;;;;;;;13.02;3.58;;;;;;;;;;5073248;28;20020;-39
2021/08/19 05:27:13;;;;;;;10.98;3.45;;;;;;;;;;5083923;28;20020;-39
2021/08/19 05:29:40;;;;;;;9.20;3.35;;;;;;;;;;5083796;28;20024;-38
2021/08/19 05:32:08;;;;;;;18.50;3.38;;;;;;;;;;5070932;28;20028;-38
2021/08/19 05:34:35;;;;;;;23.33;3.88;;;;;;;;;;5070602;28;20015;-39
2021/08/19 05:37:02;;;;;;;14.25;3.15;;;;;;;;;;5082697;28;20123;-39
2021/08/19 05:39:29;;;;;;;11.60;3.53;;;;;;;;;;5072472;28;20028;-39
2021/08/19 05:41:56;;;;;;;9.15;3.10;;;;;;;;;;5070817;28;20464;-39
2021/08/19 05:44:23;;;;;;;9.68;3.10;;;;;;;;;;5084570;28;20021;-39
2021/08/19 05:46:50;;;;;;;11.05;3.10;;;;;;;;;;5078948;28;20490;-40
2021/08/19 05:49:17;;;;;;;12.15;3.20;;;;;;;;;;5074763;28;20112;-40
2021/08/19 05:51:44;;;;;;;7.93;2.80;;;;;;;;;;5083886;28;20020;-39
2021/08/19 05:54:11;;;;;;;12.18;3.20;;;;;;;;;;5070610;28;20017;-39
2021/08/19 05:56:38;;;;;;;9.73;2.97;;;;;;;;;;5075133;28;20024;-39
2021/08/19 05:59:05;;;;;;;10.43;3.05;;;;;;;;;;5078957;28;20380;-39
2021/08/19 06:01:32;;;;;;;11.93;2.97;;;;;;;;;;5070564;28;20103;-39
2021/08/19 06:03:59;;;;;;;8.50;2.95;;;;;;;;;;5070641;28;20388;-49
2021/08/19 06:06:26;;;;;;;8.85;2.55;;;;;;;;;;5071275;28;20060;-43
2021/08/19 06:08:53;;;;;;;7.80;2.47;;;;;;;;;;5082165;28;20020;-46
2021/08/19 06:11:20;;;;;;;8.23;2.63;;;;;;;;;;5070667;28;20467;-49
2021/08/19 06:13:47;;;;;;;7.95;2.50;;;;;;;;;;5069931;28;20021;-39
2021/08/19 06:16:14;;;;;;;10.30;2.63;;;;;;;;;;5070128;28;20029;-39
2021/08/19 06:18:41;;;;;;;9.48;2.42;;;;;;;;;;5084159;28;20016;-47
2021/08/19 06:21:08;;;;;;;10.40;2.33;;;;;;;;;;5075322;28;20027;-46
2021/08/19 06:23:35;;;;;;;7.95;2.28;;;;;;;;;;5087237;28;20102;-44
2021/08/19 06:26:02;;;;;;;7.10;2.60;;;;;;;;;;5074175;28;20016;-46
2021/08/19 06:28:29;;;;;;;8.40;2.58;;;;;;;;;;5092731;28;20458;-40
2021/08/19 06:30:56;;;;;;;9.25;2.45;;;;;;;;;;5074127;28;20024;-48
2021/08/19 06:33:23;;;;;;;7.80;2.42;;;;;;;;;;5074170;28;20095;-46
2021/08/19 06:35:50;;;;;;;7.55;2.40;;;;;;;;;;5073425;28;20093;-42
2021/08/19 06:38:17;;;;;;;6.93;2.33;;;;;;;;;;5082372;28;20036;-42
2021/08/19 06:40:44;;;;;;;7.53;2.50;;;;;;;;;;5073963;28;20028;-42
2021/08/19 06:43:11;;;;;;;6.95;2.40;;;;;;;;;;5073730;28;20070;-40
2021/08/19 06:45:38;;;;;;;7.22;1.90;;;;;;;;;;5077754;28;20020;-44
2021/08/19 06:48:06;;;;;;;6.05;2.10;;;;;;;;;;5093512;28;20076;-45
2021/08/19 06:50:33;;;;;;;6.28;2.00;;;;;;;;;;5093533;28;20379;-40
2021/08/19 06:53:00;;;;;;;6.72;1.95;;;;;;;;;;5084786;28;20490;-42
2021/08/19 06:55:28;;;;;;;5.40;1.83;;;;;;;;;;5073522;28;20373;-39
2021/08/19 06:57:55;;;;;;;4.15;1.80;;;;;;;;;;5084764;28;20048;-40
2021/08/19 07:00:23;;;;;;;4.95;1.77;;;;;;;;;;5085156;28;20032;-39
2021/08/19 07:02:50;;;;;;;7.57;1.75;;;;;;;;;;5073758;28;20086;-39
2021/08/19 07:05:17;;;;;;;4.72;1.90;;;;;;;;;;5073631;28;20350;-39
2021/08/19 07:07:44;;;;;;;6.32;1.70;;;;;;;;;;5073968;28;20330;-39
2021/08/19 07:10:11;;;;;;;5.20;2.00;;;;;;;;;;5091163;28;20024;-39
2021/08/19 07:12:39;;;;;;;5.88;1.88;;;;;;;;;;5089369;28;20436;-40
2021/08/19 07:15:07;;;;;;;5.78;2.20;;;;;;;;;;5085803;28;20051;-45
2021/08/19 07:17:34;;;;;;;4.57;1.55;;;;;;;;;;5078933;28;20024;-41
2021/08/19 07:20:01;;;;;;;5.32;1.90;;;;;;;;;;5076835;28;20085;-41
2021/08/19 07:22:28;;;;;;;4.63;1.75;;;;;;;;;;5073011;28;20031;-39
2021/08/19 07:24:55;;;;;;;4.82;1.45;;;;;;;;;;5073288;28;20017;-39
2021/08/19 07:27:22;;;;;;;3.63;1.48;;;;;;;;;;5087089;28;20585;-39
2021/08/19 07:29:49;;;;;;;4.15;1.77;;;;;;;;;;5084497;28;20046;-39
2021/08/19 07:32:19;;;;;;;4.15;1.70;;;;;;;;;;5071208;28;20028;-38
2021/08/19 07:34:47;;;;;;;3.88;1.48;;;;;;;;;;5073027;28;20054;-39
2021/08/19 07:37:14;;;;;;;3.95;1.20;;;;;;;;;;5072394;28;20567;-39
2021/08/19 07:39:41;;;;;;;4.82;1.33;;;;;;;;;;5084400;28;20025;-39
2021/08/19 07:42:08;;;;;;;5.25;1.30;;;;;;;;;;5072686;28;20029;-38
2021/08/19 07:44:35;;;;;;;4.70;1.50;;;;;;;;;;5086508;28;20013;-39
2021/08/19 07:47:02;;;;;;;4.55;1.50;;;;;;;;;;5072722;28;20017;-39
2021/08/19 07:49:29;;;;;;;7.88;1.90;;;;;;;;;;5075917;28;20115;-40
2021/08/19 07:51:56;;;;;;;3.72;1.40;;;;;;;;;;5071303;28;20024;-38
2021/08/19 07:54:23;;;;;;;5.90;1.33;;;;;;;;;;5081494;28;20037;-38
2021/08/19 07:56:50;;;;;;;5.57;1.30;;;;;;;;;;5076275;28;20102;-39
2021/08/19 07:59:17;;;;;;;4.93;1.45;;;;;;;;;;5075595;28;21410;-40
2021/08/19 08:01:44;;;;;;;4.30;1.33;;;;;;;;;;5077743;28;20107;-39
2021/08/19 08:04:11;;;;;;;4.15;1.55;;;;;;;;;;5086625;28;20008;-40
2021/08/19 08:06:39;;;;;;;3.67;1.10;;;;;;;;;;5083276;28;20073;-41
2021/08/19 08:09:06;;;;;;;5.45;1.20;;;;;;;;;;5084487;28;20039;-40
2021/08/19 08:11:33;;;;;;;4.53;1.40;;;;;;;;;;5076224;28;20037;-39
2021/08/19 08:14:02;;;;;;;4.97;1.52;;;;;;;;;;5071871;28;20016;-40
2021/08/19 08:16:29;;;;;;;3.35;1.40;;;;;;;;;;5073065;28;20055;-39
2021/08/19 08:18:56;;;;;;;4.85;1.10;;;;;;;;;;5085820;28;20028;-40
2021/08/19 08:21:24;;;;;;;3.60;1.00;;;;;;;;;;5075847;28;20043;-39
2021/08/19 08:23:53;;;;;;;4.22;1.02;;;;;;;;;;5071524;28;20020;-39
2021/08/19 08:26:21;;;;;;;4.13;1.15;;;;;;;;;;5072037;28;20021;-39
2021/08/19 08:28:50;;;;;;;2.10;0.90;;;;;;;;;;5071742;28;20017;-38
2021/08/19 08:31:18;;;;;;;3.53;1.27;;;;;;;;;;5075738;28;20028;-38
2021/08/19 08:33:45;;;;;;;3.10;0.77;;;;;;;;;;5071670;28;20086;-39
2021/08/19 08:36:12;;;;;;;3.95;0.90;;;;;;;;;;5071676;28;20411;-38
2021/08/19 08:38:39;;;;;;;4.18;0.68;;;;;;;;;;5071637;28;20020;-40
2021/08/19 08:41:07;;;;;;;1.80;0.73;;;;;;;;;;5081911;28;20012;-43
2021/08/19 08:43:34;;;;;;;3.25;0.85;;;;;;;;;;5071581;28;20031;-48
2021/08/19 08:46:03;;;;;;;2.95;0.90;;;;;;;;;;5071179;28;20070;-43
2021/08/19 08:48:32;;;;;;;2.75;0.80;;;;;;;;;;5071608;28;20024;-47
2021/08/19 08:50:59;;;;;;;3.10;0.73;;;;;;;;;;5074117;28;20019;-38
2021/08/19 08:53:26;;;;;;;1.50;0.57;;;;;;;;;;5071337;28;20099;-39
2021/08/19 08:55:54;;;;;;;1.63;0.70;;;;;;;;;;5071031;28;20086;-39
2021/08/19 08:58:21;;;;;;;1.70;0.77;;;;;;;;;;5071329;28;20029;-38
2021/08/19 09:00:49;;;;;;;3.08;1.00;;;;;;;;;;5073442;28;20055;-40
2021/08/19 09:03:17;;;;;;;3.25;0.80;;;;;;;;;;5071777;28;20036;-38
2021/08/19 09:05:45;;;;;;;3.67;0.65;;;;;;;;;;5071170;28;20016;-39
2021/08/19 09:08:19;;;;;;;2.53;0.75;;;;;;;;;;5071163;28;20025;-39
2021/08/19 09:10:47;;;;;;;3.33;0.52;;;;;;;;;;5068347;28;20016;-40
2021/08/19 09:13:18;;;;;;;1.75;0.80;;;;;;;;;;5072255;28;20499;-39
2021/08/19 09:15:46;;;;;;;3.92;0.82;;;;;;;;;;5070924;28;20066;-38
2021/08/19 09:18:27;;;;;;;1.55;0.85;;;;;;;;;;5085201;28;20024;-39
2021/08/19 09:20:54;;;;;;;1.40;0.60;;;;;;;;;;5071947;28;20024;-38
2021/08/19 09:23:21;;;;;;;1.15;0.50;;;;;;;;;;5076159;28;20052;-38
2021/08/19 09:25:48;;;;;;;2.10;0.60;;;;;;;;;;5070879;28;20086;-39
2021/08/19 09:28:25;;;;;;;2.08;0.60;;;;;;;;;;5070921;28;20086;-40
2021/08/19 09:31:00;;;;;;;2.45;0.60;;;;;;;;;;5088747;28;20016;-39
2021/08/19 09:33:31;;;;;;;1.35;0.68;;;;;;;;;;5084928;28;20028;-38
2021/08/19 09:36:00;;;;;;;1.67;0.68;;;;;;;;;;5070468;28;20044;-38
2021/08/19 09:38:28;;;;;;;2.53;0.65;;;;;;;;;;5070963;28;20104;-39
2021/08/19 09:41:07;;;;;;;1.15;0.60;;;;;;;;;;5071094;28;20078;-38
2021/08/19 09:43:37;;;;;;;2.15;0.80;;;;;;;;;;5084554;28;20082;-39
2021/08/19 09:46:04;;;;;;;1.67;0.60;;;;;;;;;;5070299;28;20029;-39
2021/08/19 09:48:31;;;;;;;2.25;0.63;;;;;;;;;;5084780;28;20066;-38
2021/08/19 09:51:18;;;;;;;1.88;0.70;;;;;;;;;;5074425;28;20042;-39
2021/08/19 09:53:46;;;;;;;2.33;0.60;;;;;;;;;;5079022;28;20070;-45
2021/08/19 09:56:14;;;;;;;1.52;0.60;;;;;;;;;;5074542;28;20045;-38
2021/08/19 09:58:41;;;;;;;3.63;0.65;;;;;;;;;;5073652;28;20479;-38
2021/08/19 10:01:08;;;;;;;1.30;0.70;;;;;;;;;;5074126;28;20028;-39
2021/08/19 10:03:37;;;;;;;2.38;0.73;;;;;;;;;;5089469;28;20542;-40
2021/08/19 10:06:04;;;;;;;1.08;0.50;;;;;;;;;;5080326;28;20028;-39
2021/08/19 10:08:31;;;;;;;1.58;0.50;;;;;;;;;;5086874;28;20036;-39
2021/08/19 10:11:00;;;;;;;1.55;0.73;;;;;;;;;;5074408;28;20372;-39
2021/08/19 10:13:27;;;;;;;4.72;0.90;;;;;;;;;;5079729;28;20375;-41
2021/08/19 10:15:55;;;;;;;4.63;0.60;;;;;;;;;;5073931;28;20024;-38
2021/08/19 10:18:25;;;;;;;2.78;0.60;;;;;;;;;;5088492;28;20060;-38
2021/08/19 10:21:24;;;;;;;3.50;0.57;;;;;;;;;;5074628;28;20012;-39
2021/08/19 10:23:51;;;;;;;2.30;0.70;;;;;;;;;;5052358;28;20087;-39
2021/08/19 10:26:19;;;;;;;1.85;0.60;;;;;;;;;;5074048;28;20027;-40
2021/08/19 10:28:56;;;;;;;2.05;0.45;;;;;;;;;;5074887;28;20099;-42
2021/08/19 10:31:38;;;;;;;1.80;0.60;;;;;;;;;;5074560;28;20094;-40
2021/08/19 10:34:07;;;;;;;1.60;0.63;;;;;;;;;;5088248;28;20118;-39
2021/08/19 10:36:40;;;;;;;4.68;0.63;;;;;;;;;;5084287;28;20097;-38
2021/08/19 10:39:30;;;;;;;2.17;0.60;;;;;;;;;;5076161;28;20024;-39
2021/08/19 10:41:57;;;;;;;1.55;0.55;;;;;;;;;;5070197;28;20578;-43
2021/08/19 10:44:32;;;;;;;1.27;0.70;;;;;;;;;;5092156;28;20020;-41
2021/08/19 10:46:59;;;;;;;2.67;0.63;;;;;;;;;;5077353;28;20020;-40
2021/08/19 10:49:32;;;;;;;11.50;0.98;;;;;;;;;;5086096;28;20023;-42
2021/08/19 10:52:08;;;;;;;3.60;0.70;;;;;;;;;;5090352;28;20073;-53
2021/08/19 10:54:36;;;;;;;4.18;0.80;;;;;;;;;;5082968;28;20035;-48
2021/08/19 10:57:23;;;;;;;4.15;0.65;;;;;;;;;;5074075;28;20028;-44
2021/08/19 10:59:58;;;;;;;3.53;0.77;;;;;;;;;;5075523;28;20024;-45
2021/08/19 11:02:44;;;;;;;2.17;0.82;;;;;;;;;;5085686;28;20063;-48
2021/08/19 11:05:29;;;;;;;4.63;0.60;;;;;;;;;;5088908;28;20024;-43
2021/08/19 11:07:58;;;;;;;4.18;0.70;;;;;;;;;;5087105;28;20020;-43
2021/08/19 11:10:30;;;;;;;3.58;1.00;;;;;;;;;;5077000;28;20094;-43
2021/08/19 11:13:10;;;;;;;2.72;0.80;;;;;;;;;;5092195;28;20106;-44
2021/08/19 11:15:48;;;;;;;3.85;0.57;;;;;;;;;;5087463;28;20434;-43
2021/08/19 11:18:45;;;;;;;3.55;0.80;;;;;;;;;;5092125;28;20040;-44
2021/08/19 11:21:12;;;;;;;3.53;0.70;;;;;;;;;;5073134;28;20793;-43
2021/08/19 11:23:39;;;;;;;1.88;0.70;;;;;;;;;;5083247;28;20364;-43
2021/08/19 11:26:13;;;;;;;2.90;0.70;;;;;;;;;;5077343;28;20411;-43
2021/08/19 11:28:44;;;;;;;2.60;0.60;;;;;;;;;;5071902;28;20122;-42
2021/08/19 11:31:21;;;;;;;5.35;0.77;;;;;;;;;;5076563;28;20020;-43
2021/08/19 11:33:50;;;;;;;1.98;0.80;;;;;;;;;;5079170;28;20089;-40
2021/08/19 11:36:17;;;;;;;2.08;0.70;;;;;;;;;;5090384;28;20488;-43
2021/08/19 11:38:45;;;;;;;7.07;1.10;;;;;;;;;;5087786;28;20027;-45
2021/08/19 11:41:13;;;;;;;8.60;0.80;;;;;;;;;;5072857;28;20103;-42
2021/08/19 11:43:42;;;;;;;5.40;1.00;;;;;;;;;;5072950;28;20035;-48
2021/08/19 11:46:09;;;;;;;2.72;0.60;;;;;;;;;;5073054;28;20056;-40
2021/08/19 11:48:37;;;;;;;5.22;0.65;;;;;;;;;;5087297;28;20028;-40
2021/08/19 11:51:05;;;;;;;3.47;0.80;;;;;;;;;;5070762;28;20071;-38
2021/08/19 11:53:33;;;;;;;4.40;0.77;;;;;;;;;;5072650;28;20422;-40
2021/08/19 11:56:12;;;;;;;4.50;0.73;;;;;;;;;;5084061;28;20519;-41
2021/08/19 11:58:39;;;;;;;2.78;0.52;;;;;;;;;;5073072;28;20023;-41
2021/08/19 12:01:10;;;;;;;4.68;0.90;;;;;;;;;;5072042;28;20129;-40
2021/08/19 12:03:41;;;;;;;5.22;0.75;;;;;;;;;;5079859;28;20103;-42
2021/08/19 12:06:15;;;;;;;2.88;0.70;;;;;;;;;;5086050;28;20020;-41
2021/08/19 12:08:52;;;;;;;5.13;0.80;;;;;;;;;;5081738;28;20058;-42
2021/08/19 12:11:22;;;;;;;2.38;0.73;;;;;;;;;;5084667;28;20016;-41
2021/08/19 12:13:50;;;;;;;1.98;0.90;;;;;;;;;;5076975;28;20028;-43
2021/08/19 12:16:28;;;;;;;5.22;0.77;;;;;;;;;;5080275;28;20414;-40
2021/08/19 12:19:12;;;;;;;6.68;0.98;;;;;;;;;;5078101;28;20024;-41
2021/08/19 12:21:40;;;;;;;2.47;0.70;;;;;;;;;;5081507;28;20025;-37
2021/08/19 12:24:09;;;;;;;1.95;0.88;;;;;;;;;;5074135;28;20488;-38
2021/08/19 12:26:35;;;;;;;3.83;0.85;;;;;;;;;;5070191;28;20035;-38
2021/08/19 12:29:02;;;;;;;3.42;0.80;;;;;;;;;;5070038;28;20020;-38
2021/08/19 12:31:49;;;;;;;5.47;0.57;;;;;;;;;;5072037;28;20016;-40
2021/08/19 12:34:17;;;;;;;3.50;0.60;;;;;;;;;;5073854;28;20027;-41
2021/08/19 12:36:44;;;;;;;6.05;1.10;;;;;;;;;;5071634;28;20049;-41
2021/08/19 12:39:18;;;;;;;2.35;0.88;;;;;;;;;;5067280;28;20665;-44
2021/08/19 12:41:45;;;;;;;4.50;1.10;;;;;;;;;;5071489;28;20027;-41
2021/08/19 12:44:13;;;;;;;3.08;0.88;;;;;;;;;;5072552;28;20032;-43
2021/08/19 12:46:41;;;;;;;4.60;1.13;;;;;;;;;;5091536;28;20043;-41
2021/08/19 12:49:28;;;;;;;2.60;0.80;;;;;;;;;;5082449;28;20517;-42
2021/08/19 12:52:10;;;;;;;3.30;0.90;;;;;;;;;;5086675;28;20024;-47
2021/08/19 12:54:38;;;;;;;2.38;0.70;;;;;;;;;;5086223;28;20050;-41
2021/08/19 12:57:05;;;;;;;5.00;0.90;;;;;;;;;;5090823;28;20036;-43
2021/08/19 12:59:37;;;;;;;3.33;0.88;;;;;;;;;;5090183;28;20379;-41
2021/08/19 13:02:04;;;;;;;;;;;;;;;;;;5089557;28;20035;-43
2021/08/19 13:04:31;;;;;;;4.72;0.90;;;;;;;;;;5085757;28;19912;-43
2021/08/19 13:06:58;;;;;;;4.63;1.08;;;;;;;;;;5088535;28;20016;-40
2021/08/19 13:09:25;;;;;;;5.43;0.90;;;;;;;;;;5086732;28;20490;-39
2021/08/19 13:11:52;;;;;;;3.95;0.68;;;;;;;;;;5091465;28;20020;-41
2021/08/19 13:14:19;;;;;;;6.38;0.85;;;;;;;;;;5072201;28;20056;-41
2021/08/19 13:16:46;;;;;;;4.68;1.20;;;;;;;;;;5076912;28;20123;-41
2021/08/19 13:19:14;;;;;;;2.90;1.00;;;;;;;;;;5077923;28;20028;-40
2021/08/19 13:21:41;;;;;;;4.18;1.00;;;;;;;;;;5082708;28;20039;-41
2021/08/19 13:24:08;;;;;;;3.70;0.90;;;;;;;;;;5082807;28;20028;-41
2021/08/19 13:26:35;;;;;;;4.53;0.80;;;;;;;;;;5079190;28;20611;-41
2021/08/19 13:29:02;;;;;;;6.07;0.82;;;;;;;;;;5087882;28;20144;-40
2021/08/19 13:31:29;;;;;;;5.85;1.00;;;;;;;;;;5077656;28;20032;-41
2021/08/19 13:33:56;;;;;;;3.47;0.70;;;;;;;;;;5086857;28;20021;-39
2021/08/19 13:36:23;;;;;;;2.13;0.50;;;;;;;;;;5078603;28;20083;-42
2021/08/19 13:38:53;;;;;;;2.17;0.65;;;;;;;;;;5082958;28;20058;-42
2021/08/19 13:41:20;;;;;;;3.22;0.75;;;;;;;;;;5077955;28;20099;-41
2021/08/19 13:43:47;;;;;;;3.63;0.90;;;;;;;;;;5084936;28;20047;-42
2021/08/19 13:46:14;;;;;;;7.05;0.85;;;;;;;;;;5081492;28;20033;-42
2021/08/19 13:48:41;;;;;;;2.30;0.80;;;;;;;;;;5085752;28;20371;-41
2021/08/19 13:51:08;;;;;;;1.27;0.60;;;;;;;;;;5084353;28;20111;-42
2021/08/19 13:53:35;;;;;;;6.38;1.00;;;;;;;;;;5085963;28;20025;-43
2021/08/19 13:56:02;;;;;;;6.63;0.80;;;;;;;;;;5081041;28;20057;-41
2021/08/19 13:58:31;;;;;;;5.72;0.80;;;;;;;;;;5083666;28;20402;-40
2021/08/19 14:00:58;;;;;;;5.90;0.70;;;;;;;;;;5081560;28;20504;-40
2021/08/19 14:03:26;;;;;;;4.57;0.85;;;;;;;;;;5075107;28;20075;-41
2021/08/19 14:05:53;;;;;;;4.55;0.60;;;;;;;;;;5085429;28;20077;-40
2021/08/19 14:08:20;;;;;;;1.83;0.68;;;;;;;;;;5075489;28;20024;-43
2021/08/19 14:10:47;;;;;;;2.13;0.70;;;;;;;;;;5087339;28;20530;-42
2021/08/19 14:13:14;;;;;;;8.80;0.80;;;;;;;;;;5073747;28;20454;-42
2021/08/19 14:15:41;;;;;;;10.00;1.00;;;;;;;;;;5075928;28;20034;-45
2021/08/19 14:18:08;;;;;;;4.95;0.80;;;;;;;;;;5083183;28;20105;-46
2021/08/19 14:20:35;;;;;;;3.13;0.88;;;;;;;;;;5084208;28;20568;-41
2021/08/19 14:23:02;;;;;;;6.22;0.98;;;;;;;;;;5085007;28;20468;-44
2021/08/19 14:25:29;;;;;;;3.92;0.77;;;;;;;;;;5084073;28;20031;-43
2021/08/19 14:27:56;;;;;;;1.75;0.60;;;;;;;;;;5077852;28;20031;-43
2021/08/19 14:30:24;;;;;;;3.10;0.60;;;;;;;;;;5078027;28;20455;-42
2021/08/19 14:32:51;;;;;;;2.40;0.93;;;;;;;;;;5081387;28;20025;-43
2021/08/19 14:35:18;;;;;;;2.53;0.70;;;;;;;;;;5088514;28;20077;-43
2021/08/19 14:37:45;;;;;;;5.03;0.75;;;;;;;;;;5081860;28;20044;-44
2021/08/19 14:40:12;;;;;;;4.32;0.70;;;;;;;;;;5079133;28;20024;-43
2021/08/19 14:42:39;;;;;;;5.60;0.60;;;;;;;;;;5088144;28;20046;-43
2021/08/19 14:45:07;;;;;;;5.82;0.70;;;;;;;;;;5083284;28;20028;-44
2021/08/19 14:47:34;;;;;;;8.73;0.73;;;;;;;;;;5088596;28;20115;-44